sensor_id;sensor_type;location;lat;lon;timestamp;temperature;humidity
9987;DHT22;5033;46.310;11.214;2024-01-16T00:02:04;1.70;99.90
9987;DHT22;5033;46.310;11.214;2024-01-16T00:04:37;1.70;99.90
9987;DHT22;5033;46.310;11.214;2024-01-16T00:07:05;1.70;99.90
9987;DHT22;5033;46.310;11.214;2024-01-16T00:09:33;1.80;99.90
9987;DHT22;5033;46.310;11.214;2024-01-16T00:12:01;1.80;99.90
9987;DHT22;5033;46.310;11.214;2024-01-16T00:14:28;1.80;99.90
9987;DHT22;5033;46.310;11.214;2024-01-16T00:16:55;1.80;99.90
9987;DHT22;5033;46.310;11.214;2024-01-16T00:19:22;1.90;99.90
9987;DHT22;5033;46.310;11.214;2024-01-16T00:21:53;2.00;99.90
9987;DHT22;5033;46.310;11.214;2024-01-16T00:24:21;2.00;99.90
9987;DHT22;5033;46.310;11.214;2024-01-16T00:26:48;2.00;99.90
9987;DHT22;5033;46.310;11.214;2024-01-16T00:29:16;2.10;99.90
9987;DHT22;5033;46.310;11.214;2024-01-16T00:31:44;2.10;99.90
9987;DHT22;5033;46.310;11.214;2024-01-16T00:34:11;2.10;99.90
9987;DHT22;5033;46.310;11.214;2024-01-16T00:36:38;2.00;99.90
9987;DHT22;5033;46.310;11.214;2024-01-16T00:39:06;2.10;99.90
9987;DHT22;5033;46.310;11.214;2024-01-16T00:41:34;2.10;99.90
9987;DHT22;5033;46.310;11.214;2024-01-16T00:44:01;2.20;99.90
9987;DHT22;5033;46.310;11.214;2024-01-16T00:46:28;2.30;99.90
9987;DHT22;5033;46.310;11.214;2024-01-16T00:48:56;2.30;99.90
9987;DHT22;5033;46.310;11.214;2024-01-16T00:51:23;2.30;99.90
9987;DHT22;5033;46.310;11.214;2024-01-16T00:53:50;2.20;99.90
9987;DHT22;5033;46.310;11.214;2024-01-16T00:56:18;2.30;99.90
9987;DHT22;5033;46.310;11.214;2024-01-16T00:58:46;2.30;99.90
9987;DHT22;5033;46.310;11.214;2024-01-16T01:01:13;2.30;99.90
9987;DHT22;5033;46.310;11.214;2024-01-16T01:03:40;2.30;99.90
9987;DHT22;5033;46.310;11.214;2024-01-16T01:06:07;2.40;99.90
9987;DHT22;5033;46.310;11.214;2024-01-16T01:08:34;2.40;99.90
9987;DHT22;5033;46.310;11.214;2024-01-16T01:11:01;2.30;99.90
9987;DHT22;5033;46.310;11.214;2024-01-16T01:13:30;2.30;99.90
9987;DHT22;5033;46.310;11.214;2024-01-16T01:15:57;2.40;99.90
9987;DHT22;5033;46.310;11.214;2024-01-16T01:18:24;2.40;99.90
9987;DHT22;5033;46.310;11.214;2024-01-16T01:20:51;2.50;99.90
9987;DHT22;5033;46.310;11.214;2024-01-16T01:23:18;2.50;99.90
9987;DHT22;5033;46.310;11.214;2024-01-16T01:25:45;2.50;99.90
9987;DHT22;5033;46.310;11.214;2024-01-16T01:28:12;2.50;99.90
9987;DHT22;5033;46.310;11.214;2024-01-16T01:30:40;2.40;99.90
9987;DHT22;5033;46.310;11.214;2024-01-16T01:33:07;2.50;99.90
9987;DHT22;5033;46.310;11.214;2024-01-16T01:35:35;2.50;99.90
9987;DHT22;5033;46.310;11.214;2024-01-16T01:38:02;2.50;99.90
9987;DHT22;5033;46.310;11.214;2024-01-16T01:40:29;2.40;99.90
9987;DHT22;5033;46.310;11.214;2024-01-16T01:42:56;2.40;99.90
9987;DHT22;5033;46.310;11.214;2024-01-16T01:45:23;2.40;99.90
9987;DHT22;5033;46.310;11.214;2024-01-16T01:47:51;2.40;99.90
9987;DHT22;5033;46.310;11.214;2024-01-16T01:50:18;2.30;99.90
9987;DHT22;5033;46.310;11.214;2024-01-16T01:52:45;2.30;99.90
9987;DHT22;5033;46.310;11.214;2024-01-16T01:55:13;2.30;99.90
9987;DHT22;5033;46.310;11.214;2024-01-16T01:57:42;2.20;99.90
9987;DHT22;5033;46.310;11.214;2024-01-16T02:00:10;2.10;99.90
9987;DHT22;5033;46.310;11.214;2024-01-16T02:02:37;2.10;99.90
9987;DHT22;5033;46.310;11.214;2024-01-16T02:05:06;2.10;99.90
9987;DHT22;5033;46.310;11.214;2024-01-16T02:07:33;2.10;99.90
9987;DHT22;5033;46.310;11.214;2024-01-16T02:10:01;2.10;99.90
9987;DHT22;5033;46.310;11.214;2024-01-16T02:12:29;2.00;99.90
9987;DHT22;5033;46.310;11.214;2024-01-16T02:14:56;2.00;99.90
9987;DHT22;5033;46.310;11.214;2024-01-16T02:17:23;2.00;99.90
9987;DHT22;5033;46.310;11.214;2024-01-16T02:19:50;2.00;99.90
9987;DHT22;5033;46.310;11.214;2024-01-16T02:22:20;2.00;99.90
9987;DHT22;5033;46.310;11.214;2024-01-16T02:24:49;1.90;99.90
9987;DHT22;5033;46.310;11.214;2024-01-16T02:27:16;1.90;99.90
9987;DHT22;5033;46.310;11.214;2024-01-16T02:29:44;1.90;99.90
9987;DHT22;5033;46.310;11.214;2024-01-16T02:32:12;1.90;99.90
9987;DHT22;5033;46.310;11.214;2024-01-16T02:34:40;1.90;99.90
9987;DHT22;5033;46.310;11.214;2024-01-16T02:37:07;1.90;99.90
9987;DHT22;5033;46.310;11.214;2024-01-16T02:39:34;1.90;99.90
9987;DHT22;5033;46.310;11.214;2024-01-16T02:42:02;1.90;99.90
9987;DHT22;5033;46.310;11.214;2024-01-16T02:44:29;1.90;99.90
9987;DHT22;5033;46.310;11.214;2024-01-16T02:46:56;1.90;99.90
9987;DHT22;5033;46.310;11.214;2024-01-16T02:49:23;1.80;99.90
9987;DHT22;5033;46.310;11.214;2024-01-16T02:51:51;1.90;99.90
9987;DHT22;5033;46.310;11.214;2024-01-16T02:54:19;1.90;99.90
9987;DHT22;5033;46.310;11.214;2024-01-16T02:56:47;1.90;99.90
9987;DHT22;5033;46.310;11.214;2024-01-16T02:59:15;1.90;99.90
9987;DHT22;5033;46.310;11.214;2024-01-16T03:01:42;1.80;99.90
9987;DHT22;5033;46.310;11.214;2024-01-16T03:04:09;1.80;99.90
9987;DHT22;5033;46.310;11.214;2024-01-16T03:06:37;1.70;99.90
9987;DHT22;5033;46.310;11.214;2024-01-16T03:09:04;1.60;99.90
9987;DHT22;5033;46.310;11.214;2024-01-16T03:11:32;1.50;99.90
9987;DHT22;5033;46.310;11.214;2024-01-16T03:13:59;1.50;99.90
9987;DHT22;5033;46.310;11.214;2024-01-16T03:16:27;1.50;99.90
9987;DHT22;5033;46.310;11.214;2024-01-16T03:18:54;1.40;99.90
9987;DHT22;5033;46.310;11.214;2024-01-16T03:21:22;1.50;99.90
9987;DHT22;5033;46.310;11.214;2024-01-16T03:23:49;1.40;99.90
9987;DHT22;5033;46.310;11.214;2024-01-16T03:26:16;1.50;99.90
9987;DHT22;5033;46.310;11.214;2024-01-16T03:28:43;1.50;99.90
9987;DHT22;5033;46.310;11.214;2024-01-16T03:31:12;1.50;99.90
9987;DHT22;5033;46.310;11.214;2024-01-16T03:33:42;1.60;99.90
9987;DHT22;5033;46.310;11.214;2024-01-16T03:36:09;1.50;99.90
9987;DHT22;5033;46.310;11.214;2024-01-16T03:38:38;1.50;99.90
9987;DHT22;5033;46.310;11.214;2024-01-16T03:41:05;1.40;99.90
9987;DHT22;5033;46.310;11.214;2024-01-16T03:43:33;1.30;99.90
9987;DHT22;5033;46.310;11.214;2024-01-16T03:46:00;1.30;99.90
9987;DHT22;5033;46.310;11.214;2024-01-16T03:48:27;1.30;99.90
9987;DHT22;5033;46.310;11.214;2024-01-16T03:50:56;1.40;99.90
9987;DHT22;5033;46.310;11.214;2024-01-16T03:53:23;1.30;99.90
9987;DHT22;5033;46.310;11.214;2024-01-16T03:55:51;1.30;99.90
9987;DHT22;5033;46.310;11.214;2024-01-16T03:58:18;1.30;99.90
9987;DHT22;5033;46.310;11.214;2024-01-16T04:00:45;1.30;99.90
9987;DHT22;5033;46.310;11.214;2024-01-16T04:03:12;1.30;99.90
9987;DHT22;5033;46.310;11.214;2024-01-16T04:05:40;1.30;99.90
9987;DHT22;5033;46.310;11.214;2024-01-16T04:08:08;1.30;99.90
9987;DHT22;5033;46.310;11.214;2024-01-16T04:10:35;1.30;99.90
9987;DHT22;5033;46.310;11.214;2024-01-16T04:13:03;1.30;99.90
9987;DHT22;5033;46.310;11.214;2024-01-16T04:15:30;1.20;99.90
9987;DHT22;5033;46.310;11.214;2024-01-16T04:17:57;1.20;99.90
9987;DHT22;5033;46.310;11.214;2024-01-16T04:20:24;1.10;99.90
9987;DHT22;5033;46.310;11.214;2024-01-16T04:22:51;1.10;99.90
9987;DHT22;5033;46.310;11.214;2024-01-16T04:25:20;1.10;99.90
9987;DHT22;5033;46.310;11.214;2024-01-16T04:27:47;1.20;99.90
9987;DHT22;5033;46.310;11.214;2024-01-16T04:30:14;1.20;99.90
9987;DHT22;5033;46.310;11.214;2024-01-16T04:32:41;1.20;99.90
9987;DHT22;5033;46.310;11.214;2024-01-16T04:35:08;1.20;99.90
9987;DHT22;5033;46.310;11.214;2024-01-16T04:37:36;1.20;99.90
9987;DHT22;5033;46.310;11.214;2024-01-16T04:40:04;1.20;99.90
9987;DHT22;5033;46.310;11.214;2024-01-16T04:42:33;1.10;99.90
9987;DHT22;5033;46.310;11.214;2024-01-16T04:45:00;1.10;99.90
9987;DHT22;5033;46.310;11.214;2024-01-16T04:47:27;1.10;99.90
9987;DHT22;5033;46.310;11.214;2024-01-16T04:49:54;1.10;99.90
9987;DHT22;5033;46.310;11.214;2024-01-16T04:52:21;1.10;99.90
9987;DHT22;5033;46.310;11.214;2024-01-16T04:54:48;1.10;99.90
9987;DHT22;5033;46.310;11.214;2024-01-16T04:57:15;1.00;99.90
9987;DHT22;5033;46.310;11.214;2024-01-16T04:59:43;1.00;99.90
9987;DHT22;5033;46.310;11.214;2024-01-16T05:02:11;1.00;99.90
9987;DHT22;5033;46.310;11.214;2024-01-16T05:04:39;1.00;99.90
9987;DHT22;5033;46.310;11.214;2024-01-16T05:07:06;1.00;99.90
9987;DHT22;5033;46.310;11.214;2024-01-16T05:09:33;1.00;99.90
9987;DHT22;5033;46.310;11.214;2024-01-16T05:12:01;1.00;99.90
9987;DHT22;5033;46.310;11.214;2024-01-16T05:14:28;1.00;99.90
9987;DHT22;5033;46.310;11.214;2024-01-16T05:16:56;1.00;99.90
9987;DHT22;5033;46.310;11.214;2024-01-16T05:19:23;1.00;99.90
9987;DHT22;5033;46.310;11.214;2024-01-16T05:21:50;1.10;99.90
9987;DHT22;5033;46.310;11.214;2024-01-16T05:24:18;1.10;99.90
9987;DHT22;5033;46.310;11.214;2024-01-16T05:26:45;1.10;99.90
9987;DHT22;5033;46.310;11.214;2024-01-16T05:29:12;1.10;99.90
9987;DHT22;5033;46.310;11.214;2024-01-16T05:31:42;1.10;99.90
9987;DHT22;5033;46.310;11.214;2024-01-16T05:34:10;1.10;99.90
9987;DHT22;5033;46.310;11.214;2024-01-16T05:36:38;1.10;99.90
9987;DHT22;5033;46.310;11.214;2024-01-16T05:39:05;1.00;99.90
9987;DHT22;5033;46.310;11.214;2024-01-16T05:41:33;1.00;99.90
9987;DHT22;5033;46.310;11.214;2024-01-16T05:44:01;1.00;99.90
9987;DHT22;5033;46.310;11.214;2024-01-16T05:46:31;1.00;99.90
9987;DHT22;5033;46.310;11.214;2024-01-16T05:48:58;1.00;99.90
9987;DHT22;5033;46.310;11.214;2024-01-16T05:51:27;1.00;99.90
9987;DHT22;5033;46.310;11.214;2024-01-16T05:53:55;1.00;99.90
9987;DHT22;5033;46.310;11.214;2024-01-16T05:56:22;1.00;99.90
9987;DHT22;5033;46.310;11.214;2024-01-16T05:58:49;1.00;99.90
9987;DHT22;5033;46.310;11.214;2024-01-16T06:01:17;0.90;99.90
9987;DHT22;5033;46.310;11.214;2024-01-16T06:03:44;0.90;99.90
9987;DHT22;5033;46.310;11.214;2024-01-16T06:06:14;0.90;99.90
9987;DHT22;5033;46.310;11.214;2024-01-16T06:08:42;0.90;99.90
9987;DHT22;5033;46.310;11.214;2024-01-16T06:11:09;0.80;99.90
9987;DHT22;5033;46.310;11.214;2024-01-16T06:13:38;0.80;99.90
9987;DHT22;5033;46.310;11.214;2024-01-16T06:16:06;0.70;99.90
9987;DHT22;5033;46.310;11.214;2024-01-16T06:18:33;0.70;99.90
9987;DHT22;5033;46.310;11.214;2024-01-16T06:21:00;0.70;99.90
9987;DHT22;5033;46.310;11.214;2024-01-16T06:23:28;0.70;99.90
9987;DHT22;5033;46.310;11.214;2024-01-16T06:25:56;0.70;99.90
9987;DHT22;5033;46.310;11.214;2024-01-16T06:28:23;0.70;99.90
9987;DHT22;5033;46.310;11.214;2024-01-16T06:30:50;0.70;99.90
9987;DHT22;5033;46.310;11.214;2024-01-16T06:33:17;0.70;99.90
9987;DHT22;5033;46.310;11.214;2024-01-16T06:35:44;0.70;99.90
9987;DHT22;5033;46.310;11.214;2024-01-16T06:38:11;0.70;99.90
9987;DHT22;5033;46.310;11.214;2024-01-16T06:40:38;0.60;99.90
9987;DHT22;5033;46.310;11.214;2024-01-16T06:43:06;0.60;99.90
9987;DHT22;5033;46.310;11.214;2024-01-16T06:45:34;0.60;99.90
9987;DHT22;5033;46.310;11.214;2024-01-16T06:48:01;0.60;99.90
9987;DHT22;5033;46.310;11.214;2024-01-16T06:50:28;0.70;99.90
9987;DHT22;5033;46.310;11.214;2024-01-16T06:52:55;0.70;99.90
9987;DHT22;5033;46.310;11.214;2024-01-16T06:55:22;0.70;99.90
9987;DHT22;5033;46.310;11.214;2024-01-16T06:57:49;0.70;99.90
9987;DHT22;5033;46.310;11.214;2024-01-16T07:00:19;0.70;99.90
9987;DHT22;5033;46.310;11.214;2024-01-16T07:02:48;0.70;99.90
9987;DHT22;5033;46.310;11.214;2024-01-16T07:05:17;0.70;99.90
9987;DHT22;5033;46.310;11.214;2024-01-16T07:07:44;0.70;99.90
9987;DHT22;5033;46.310;11.214;2024-01-16T07:10:11;0.60;99.90
9987;DHT22;5033;46.310;11.214;2024-01-16T07:12:43;0.70;99.90
9987;DHT22;5033;46.310;11.214;2024-01-16T07:15:10;0.60;99.90
9987;DHT22;5033;46.310;11.214;2024-01-16T07:17:39;0.70;99.90
9987;DHT22;5033;46.310;11.214;2024-01-16T07:20:07;0.70;99.90
9987;DHT22;5033;46.310;11.214;2024-01-16T07:22:34;0.70;99.90
9987;DHT22;5033;46.310;11.214;2024-01-16T07:25:01;0.70;99.90
9987;DHT22;5033;46.310;11.214;2024-01-16T07:27:28;0.70;99.90
9987;DHT22;5033;46.310;11.214;2024-01-16T07:29:55;0.70;99.90
9987;DHT22;5033;46.310;11.214;2024-01-16T07:32:22;0.70;99.90
9987;DHT22;5033;46.310;11.214;2024-01-16T07:34:51;0.70;99.90
9987;DHT22;5033;46.310;11.214;2024-01-16T07:37:18;0.70;99.90
9987;DHT22;5033;46.310;11.214;2024-01-16T07:39:45;0.70;99.90
9987;DHT22;5033;46.310;11.214;2024-01-16T07:42:12;0.70;99.90
9987;DHT22;5033;46.310;11.214;2024-01-16T07:44:40;0.70;99.90
9987;DHT22;5033;46.310;11.214;2024-01-16T07:47:07;0.80;99.90
9987;DHT22;5033;46.310;11.214;2024-01-16T07:49:34;0.90;99.90
9987;DHT22;5033;46.310;11.214;2024-01-16T07:52:03;0.90;99.90
9987;DHT22;5033;46.310;11.214;2024-01-16T07:54:30;0.90;99.90
9987;DHT22;5033;46.310;11.214;2024-01-16T07:56:57;0.90;99.90
9987;DHT22;5033;46.310;11.214;2024-01-16T07:59:25;0.90;99.90
9987;DHT22;5033;46.310;11.214;2024-01-16T08:01:52;0.90;99.90
9987;DHT22;5033;46.310;11.214;2024-01-16T08:04:20;0.90;99.90
9987;DHT22;5033;46.310;11.214;2024-01-16T08:06:47;0.80;99.90
9987;DHT22;5033;46.310;11.214;2024-01-16T08:09:16;0.90;99.90
9987;DHT22;5033;46.310;11.214;2024-01-16T08:11:43;0.90;99.90
9987;DHT22;5033;46.310;11.214;2024-01-16T08:14:10;0.90;99.90
9987;DHT22;5033;46.310;11.214;2024-01-16T08:16:37;0.90;99.90
9987;DHT22;5033;46.310;11.214;2024-01-16T08:19:04;1.00;99.90
9987;DHT22;5033;46.310;11.214;2024-01-16T08:21:31;1.00;99.90
9987;DHT22;5033;46.310;11.214;2024-01-16T08:23:58;1.20;99.90
9987;DHT22;5033;46.310;11.214;2024-01-16T08:26:27;2.20;99.90
9987;DHT22;5033;46.310;11.214;2024-01-16T08:28:54;3.40;99.90
9987;DHT22;5033;46.310;11.214;2024-01-16T08:31:21;4.50;99.90
9987;DHT22;5033;46.310;11.214;2024-01-16T08:33:48;5.30;99.90
9987;DHT22;5033;46.310;11.214;2024-01-16T08:36:15;5.90;99.90
9987;DHT22;5033;46.310;11.214;2024-01-16T08:38:42;6.60;99.90
9987;DHT22;5033;46.310;11.214;2024-01-16T08:41:10;7.10;99.90
9987;DHT22;5033;46.310;11.214;2024-01-16T08:43:38;7.60;99.90
9987;DHT22;5033;46.310;11.214;2024-01-16T08:46:05;8.00;99.90
9987;DHT22;5033;46.310;11.214;2024-01-16T08:48:32;8.30;99.90
9987;DHT22;5033;46.310;11.214;2024-01-16T08:50:59;8.50;99.90
9987;DHT22;5033;46.310;11.214;2024-01-16T08:53:26;8.60;99.90
9987;DHT22;5033;46.310;11.214;2024-01-16T08:55:53;8.60;99.90
9987;DHT22;5033;46.310;11.214;2024-01-16T08:58:21;8.70;99.90
9987;DHT22;5033;46.310;11.214;2024-01-16T09:00:49;9.00;99.90
9987;DHT22;5033;46.310;11.214;2024-01-16T09:03:16;9.10;99.90
9987;DHT22;5033;46.310;11.214;2024-01-16T09:05:44;9.40;99.90
9987;DHT22;5033;46.310;11.214;2024-01-16T09:08:12;9.60;99.90
9987;DHT22;5033;46.310;11.214;2024-01-16T09:10:39;9.70;99.90
9987;DHT22;5033;46.310;11.214;2024-01-16T09:13:06;9.50;99.90
9987;DHT22;5033;46.310;11.214;2024-01-16T09:15:33;9.60;99.90
9987;DHT22;5033;46.310;11.214;2024-01-16T09:18:02;9.80;99.90
9987;DHT22;5033;46.310;11.214;2024-01-16T09:20:29;9.90;99.90
9987;DHT22;5033;46.310;11.214;2024-01-16T09:22:56;10.10;99.90
9987;DHT22;5033;46.310;11.214;2024-01-16T09:25:23;10.90;99.40
9987;DHT22;5033;46.310;11.214;2024-01-16T09:27:52;12.00;97.10
9987;DHT22;5033;46.310;11.214;2024-01-16T09:30:19;13.30;91.70
9987;DHT22;5033;46.310;11.214;2024-01-16T09:32:48;15.00;81.80
9987;DHT22;5033;46.310;11.214;2024-01-16T09:35:16;16.30;72.70
9987;DHT22;5033;46.310;11.214;2024-01-16T09:37:43;17.70;63.60
9987;DHT22;5033;46.310;11.214;2024-01-16T09:40:11;18.50;53.60
9987;DHT22;5033;46.310;11.214;2024-01-16T09:42:39;19.00;49.80
9987;DHT22;5033;46.310;11.214;2024-01-16T09:45:09;19.10;48.50
9987;DHT22;5033;46.310;11.214;2024-01-16T09:47:37;19.40;47.60
9987;DHT22;5033;46.310;11.214;2024-01-16T09:50:05;19.60;46.70
9987;DHT22;5033;46.310;11.214;2024-01-16T09:52:34;19.90;45.70
9987;DHT22;5033;46.310;11.214;2024-01-16T09:55:01;19.90;46.10
9987;DHT22;5033;46.310;11.214;2024-01-16T09:57:29;19.90;44.70
9987;DHT22;5033;46.310;11.214;2024-01-16T09:59:57;19.70;49.20
9987;DHT22;5033;46.310;11.214;2024-01-16T10:02:28;18.90;49.80
9987;DHT22;5033;46.310;11.214;2024-01-16T10:04:56;17.80;50.50
9987;DHT22;5033;46.310;11.214;2024-01-16T10:07:25;16.50;51.90
9987;DHT22;5033;46.310;11.214;2024-01-16T10:09:57;15.40;52.50
9987;DHT22;5033;46.310;11.214;2024-01-16T10:12:25;14.60;57.00
9987;DHT22;5033;46.310;11.214;2024-01-16T10:14:54;13.90;59.00
9987;DHT22;5033;46.310;11.214;2024-01-16T10:17:22;13.70;59.20
9987;DHT22;5033;46.310;11.214;2024-01-16T10:20:01;13.20;58.50
9987;DHT22;5033;46.310;11.214;2024-01-16T10:22:30;12.70;59.40
9987;DHT22;5033;46.310;11.214;2024-01-16T10:25:09;12.20;60.30
9987;DHT22;5033;46.310;11.214;2024-01-16T10:27:38;11.90;60.50
9987;DHT22;5033;46.310;11.214;2024-01-16T10:30:06;12.00;59.90
9987;DHT22;5033;46.310;11.214;2024-01-16T10:32:35;11.90;59.30
9987;DHT22;5033;46.310;11.214;2024-01-16T10:35:07;12.00;61.90
9987;DHT22;5033;46.310;11.214;2024-01-16T10:37:46;12.00;61.20
9987;DHT22;5033;46.310;11.214;2024-01-16T10:40:18;11.80;58.30
9987;DHT22;5033;46.310;11.214;2024-01-16T10:42:45;11.90;58.90
9987;DHT22;5033;46.310;11.214;2024-01-16T10:45:17;11.90;60.70
9987;DHT22;5033;46.310;11.214;2024-01-16T10:47:46;12.00;60.40
9987;DHT22;5033;46.310;11.214;2024-01-16T10:50:13;12.20;60.70
9987;DHT22;5033;46.310;11.214;2024-01-16T10:52:47;12.30;58.70
9987;DHT22;5033;46.310;11.214;2024-01-16T10:55:20;12.20;57.90
9987;DHT22;5033;46.310;11.214;2024-01-16T10:57:48;12.20;60.00
9987;DHT22;5033;46.310;11.214;2024-01-16T11:00:18;11.70;60.10
9987;DHT22;5033;46.310;11.214;2024-01-16T11:02:50;11.10;60.10
9987;DHT22;5033;46.310;11.214;2024-01-16T11:05:17;11.10;61.20
9987;DHT22;5033;46.310;11.214;2024-01-16T11:07:45;11.00;62.20
9987;DHT22;5033;46.310;11.214;2024-01-16T11:10:13;11.10;64.20
9987;DHT22;5033;46.310;11.214;2024-01-16T11:12:42;11.20;64.50
9987;DHT22;5033;46.310;11.214;2024-01-16T11:15:11;11.60;63.90
9987;DHT22;5033;46.310;11.214;2024-01-16T11:17:39;11.90;70.30
9987;DHT22;5033;46.310;11.214;2024-01-16T11:20:09;12.00;67.40
9987;DHT22;5033;46.310;11.214;2024-01-16T11:22:41;12.00;66.80
9987;DHT22;5033;46.310;11.214;2024-01-16T11:25:09;11.70;64.60
9987;DHT22;5033;46.310;11.214;2024-01-16T11:27:40;11.50;64.40
9987;DHT22;5033;46.310;11.214;2024-01-16T11:30:10;11.70;68.40
9987;DHT22;5033;46.310;11.214;2024-01-16T11:32:38;11.90;65.50
9987;DHT22;5033;46.310;11.214;2024-01-16T11:35:06;11.80;65.40
9987;DHT22;5033;46.310;11.214;2024-01-16T11:37:35;11.40;64.70
9987;DHT22;5033;46.310;11.214;2024-01-16T11:40:29;11.20;63.10
9987;DHT22;5033;46.310;11.214;2024-01-16T11:42:58;10.90;61.00
9987;DHT22;5033;46.310;11.214;2024-01-16T11:45:51;10.60;61.60
9987;DHT22;5033;46.310;11.214;2024-01-16T11:48:17;10.30;64.30
9987;DHT22;5033;46.310;11.214;2024-01-16T11:50:45;10.20;62.50
9987;DHT22;5033;46.310;11.214;2024-01-16T11:53:33;10.50;68.10
9987;DHT22;5033;46.310;11.214;2024-01-16T11:56:25;10.80;67.90
9987;DHT22;5033;46.310;11.214;2024-01-16T11:59:09;11.20;67.00
9987;DHT22;5033;46.310;11.214;2024-01-16T12:01:45;11.10;64.50
9987;DHT22;5033;46.310;11.214;2024-01-16T12:04:14;11.50;64.60
9987;DHT22;5033;46.310;11.214;2024-01-16T12:06:43;11.50;66.90
9987;DHT22;5033;46.310;11.214;2024-01-16T12:09:25;12.00;67.30
9987;DHT22;5033;46.310;11.214;2024-01-16T12:11:56;12.10;70.00
9987;DHT22;5033;46.310;11.214;2024-01-16T12:14:24;11.80;63.40
9987;DHT22;5033;46.310;11.214;2024-01-16T12:16:52;11.40;63.20
9987;DHT22;5033;46.310;11.214;2024-01-16T12:19:19;11.40;63.60
9987;DHT22;5033;46.310;11.214;2024-01-16T12:21:46;11.50;64.80
9987;DHT22;5033;46.310;11.214;2024-01-16T12:24:15;12.00;67.60
9987;DHT22;5033;46.310;11.214;2024-01-16T12:26:43;12.10;65.10
9987;DHT22;5033;46.310;11.214;2024-01-16T12:29:10;12.10;63.40
9987;DHT22;5033;46.310;11.214;2024-01-16T12:31:37;11.60;62.10
9987;DHT22;5033;46.310;11.214;2024-01-16T12:34:09;11.30;60.90
9987;DHT22;5033;46.310;11.214;2024-01-16T12:36:36;10.90;62.10
9987;DHT22;5033;46.310;11.214;2024-01-16T12:39:04;10.80;63.30
9987;DHT22;5033;46.310;11.214;2024-01-16T12:41:35;10.70;63.90
9987;DHT22;5033;46.310;11.214;2024-01-16T12:44:03;10.80;63.10
9987;DHT22;5033;46.310;11.214;2024-01-16T12:46:30;10.90;63.30
9987;DHT22;5033;46.310;11.214;2024-01-16T12:49:01;11.00;63.60
9987;DHT22;5033;46.310;11.214;2024-01-16T12:51:30;11.10;63.10
9987;DHT22;5033;46.310;11.214;2024-01-16T12:54:11;11.20;63.40
9987;DHT22;5033;46.310;11.214;2024-01-16T12:56:38;11.10;61.00
9987;DHT22;5033;46.310;11.214;2024-01-16T12:59:09;10.70;61.00
9987;DHT22;5033;46.310;11.214;2024-01-16T13:01:39;10.40;62.60
9987;DHT22;5033;46.310;11.214;2024-01-16T13:04:08;10.30;64.30
9987;DHT22;5033;46.310;11.214;2024-01-16T13:06:37;10.40;63.60
9987;DHT22;5033;46.310;11.214;2024-01-16T13:09:06;10.50;62.80
9987;DHT22;5033;46.310;11.214;2024-01-16T13:11:48;10.50;62.20
9987;DHT22;5033;46.310;11.214;2024-01-16T13:14:16;10.40;62.50
9987;DHT22;5033;46.310;11.214;2024-01-16T13:16:43;10.40;62.00
9987;DHT22;5033;46.310;11.214;2024-01-16T13:19:10;10.20;60.20
9987;DHT22;5033;46.310;11.214;2024-01-16T13:21:38;10.20;60.30
9987;DHT22;5033;46.310;11.214;2024-01-16T13:24:07;10.20;62.60
9987;DHT22;5033;46.310;11.214;2024-01-16T13:26:34;10.50;63.10
9987;DHT22;5033;46.310;11.214;2024-01-16T13:29:02;10.60;62.90
9987;DHT22;5033;46.310;11.214;2024-01-16T13:31:31;10.70;62.50
9987;DHT22;5033;46.310;11.214;2024-01-16T13:33:58;10.60;62.50
9987;DHT22;5033;46.310;11.214;2024-01-16T13:36:25;10.60;62.00
9987;DHT22;5033;46.310;11.214;2024-01-16T13:38:55;10.70;62.10
9987;DHT22;5033;46.310;11.214;2024-01-16T13:41:22;10.60;62.20
9987;DHT22;5033;46.310;11.214;2024-01-16T13:43:49;10.40;59.70
9987;DHT22;5033;46.310;11.214;2024-01-16T13:46:16;10.20;61.00
9987;DHT22;5033;46.310;11.214;2024-01-16T13:48:44;10.00;61.70
9987;DHT22;5033;46.310;11.214;2024-01-16T13:51:11;9.90;62.50
9987;DHT22;5033;46.310;11.214;2024-01-16T13:53:38;9.60;61.50
9987;DHT22;5033;46.310;11.214;2024-01-16T13:56:06;9.30;60.90
9987;DHT22;5033;46.310;11.214;2024-01-16T13:58:33;9.00;62.20
9987;DHT22;5033;46.310;11.214;2024-01-16T14:01:01;8.90;63.60
9987;DHT22;5033;46.310;11.214;2024-01-16T14:03:29;9.00;64.50
9987;DHT22;5033;46.310;11.214;2024-01-16T14:05:56;8.80;63.80
9987;DHT22;5033;46.310;11.214;2024-01-16T14:08:23;8.80;64.90
9987;DHT22;5033;46.310;11.214;2024-01-16T14:10:53;8.80;64.10
9987;DHT22;5033;46.310;11.214;2024-01-16T14:13:22;8.50;65.90
9987;DHT22;5033;46.310;11.214;2024-01-16T14:15:50;8.20;67.70
9987;DHT22;5033;46.310;11.214;2024-01-16T14:18:17;8.10;68.80
9987;DHT22;5033;46.310;11.214;2024-01-16T14:20:45;8.20;70.40
9987;DHT22;5033;46.310;11.214;2024-01-16T14:23:12;8.20;70.90
9987;DHT22;5033;46.310;11.214;2024-01-16T14:25:39;8.20;71.70
9987;DHT22;5033;46.310;11.214;2024-01-16T14:28:06;8.20;72.30
9987;DHT22;5033;46.310;11.214;2024-01-16T14:30:35;8.10;73.20
9987;DHT22;5033;46.310;11.214;2024-01-16T14:33:03;7.90;74.40
9987;DHT22;5033;46.310;11.214;2024-01-16T14:35:32;7.60;75.70
9987;DHT22;5033;46.310;11.214;2024-01-16T14:37:59;7.40;75.90
9987;DHT22;5033;46.310;11.214;2024-01-16T14:40:26;7.30;76.90
9987;DHT22;5033;46.310;11.214;2024-01-16T14:42:55;7.00;77.30
9987;DHT22;5033;46.310;11.214;2024-01-16T14:45:24;6.90;78.30
9987;DHT22;5033;46.310;11.214;2024-01-16T14:47:53;6.80;79.10
9987;DHT22;5033;46.310;11.214;2024-01-16T14:50:21;6.70;79.00
9987;DHT22;5033;46.310;11.214;2024-01-16T14:52:50;6.60;79.90
9987;DHT22;5033;46.310;11.214;2024-01-16T14:55:18;6.50;80.30
9987;DHT22;5033;46.310;11.214;2024-01-16T14:57:46;6.50;80.80
9987;DHT22;5033;46.310;11.214;2024-01-16T15:00:18;6.50;81.50
9987;DHT22;5033;46.310;11.214;2024-01-16T15:02:48;6.50;81.40
9987;DHT22;5033;46.310;11.214;2024-01-16T15:05:18;6.40;81.40
9987;DHT22;5033;46.310;11.214;2024-01-16T15:07:45;6.40;82.30
9987;DHT22;5033;46.310;11.214;2024-01-16T15:10:12;6.30;82.50
9987;DHT22;5033;46.310;11.214;2024-01-16T15:12:42;6.20;82.60
9987;DHT22;5033;46.310;11.214;2024-01-16T15:15:10;6.10;82.70
9987;DHT22;5033;46.310;11.214;2024-01-16T15:17:39;6.10;83.20
9987;DHT22;5033;46.310;11.214;2024-01-16T15:20:07;6.00;83.60
9987;DHT22;5033;46.310;11.214;2024-01-16T15:22:39;6.00;88.70
9987;DHT22;5033;46.310;11.214;2024-01-16T15:25:07;6.20;87.50
9987;DHT22;5033;46.310;11.214;2024-01-16T15:27:34;6.20;85.90
9987;DHT22;5033;46.310;11.214;2024-01-16T15:30:02;6.10;86.50
9987;DHT22;5033;46.310;11.214;2024-01-16T15:32:30;6.10;85.60
9987;DHT22;5033;46.310;11.214;2024-01-16T15:34:57;6.10;87.00
9987;DHT22;5033;46.310;11.214;2024-01-16T15:37:25;6.00;85.90
9987;DHT22;5033;46.310;11.214;2024-01-16T15:39:54;5.90;86.10
9987;DHT22;5033;46.310;11.214;2024-01-16T15:42:22;5.80;86.40
9987;DHT22;5033;46.310;11.214;2024-01-16T15:44:51;5.70;86.90
9987;DHT22;5033;46.310;11.214;2024-01-16T15:47:19;5.60;87.40
9987;DHT22;5033;46.310;11.214;2024-01-16T15:49:46;5.60;88.10
9987;DHT22;5033;46.310;11.214;2024-01-16T15:52:13;5.50;88.00
9987;DHT22;5033;46.310;11.214;2024-01-16T15:54:40;5.40;88.40
9987;DHT22;5033;46.310;11.214;2024-01-16T15:57:09;5.40;89.20
9987;DHT22;5033;46.310;11.214;2024-01-16T15:59:36;5.30;89.70
9987;DHT22;5033;46.310;11.214;2024-01-16T16:02:03;5.30;89.80
9987;DHT22;5033;46.310;11.214;2024-01-16T16:04:30;5.20;90.00